createdAt,value
2022-08-01T00:00:11.847Z,1.70
2022-08-01T00:02:40.373Z,1.70
2022-08-01T00:05:10.166Z,2.10
2022-08-01T00:07:39.330Z,1.90
2022-08-01T00:10:12.564Z,1.53
2022-08-01T00:12:40.824Z,1.63
2022-08-01T00:15:12.594Z,1.80
2022-08-01T00:17:41.801Z,1.47
2022-08-01T00:20:14.354Z,1.80
2022-08-01T00:22:42.687Z,1.60
2022-08-01T00:25:12.565Z,1.80
2022-08-01T00:27:40.703Z,1.70
2022-08-01T00:30:14.691Z,1.67
2022-08-01T00:32:44.146Z,1.63
2022-08-01T00:35:12.871Z,1.83
2022-08-01T00:37:40.954Z,2.00
2022-08-01T00:40:11.573Z,1.77
2022-08-01T00:42:43.446Z,1.77
2022-08-01T00:45:12.634Z,1.83
2022-08-01T00:47:41.357Z,1.83
2022-08-01T00:50:11.798Z,1.70
2022-08-01T00:52:41.860Z,1.50
2022-08-01T00:55:15.194Z,1.90
2022-08-01T00:58:04.851Z,1.80
2022-08-01T01:00:34.920Z,1.73
2022-08-01T01:03:23.844Z,2.10
2022-08-01T01:06:16.758Z,1.63
2022-08-01T01:08:56.137Z,1.80
2022-08-01T01:11:33.793Z,2.00
2022-08-01T01:14:09.974Z,1.97
2022-08-01T01:16:42.305Z,1.97
2022-08-01T01:19:18.064Z,1.83
2022-08-01T01:22:11.302Z,1.67
2022-08-01T01:24:51.487Z,1.83
2022-08-01T01:27:41.537Z,1.97
2022-08-01T01:30:12.071Z,2.33
2022-08-01T01:32:45.265Z,1.87
2022-08-01T01:35:19.469Z,1.50
2022-08-01T01:37:49.846Z,1.90
2022-08-01T01:40:19.790Z,2.10
2022-08-01T01:42:49.642Z,1.70
2022-08-01T01:45:20.016Z,1.93
2022-08-01T01:47:48.897Z,2.00
2022-08-01T01:50:17.298Z,2.20
2022-08-01T01:52:47.807Z,2.10
2022-08-01T01:55:17.427Z,1.77
2022-08-01T01:57:47.723Z,1.70
2022-08-01T02:00:18.806Z,1.80
2022-08-01T02:02:47.960Z,1.57
2022-08-01T02:05:17.030Z,2.13
2022-08-01T02:07:46.683Z,1.73
2022-08-01T02:10:19.214Z,2.00
2022-08-01T02:12:50.964Z,1.70
2022-08-01T02:15:22.342Z,2.00
2022-08-01T02:17:52.645Z,1.90
2022-08-01T02:20:21.075Z,2.03
2022-08-01T02:22:54.242Z,1.83
2022-08-01T02:25:27.445Z,1.87
2022-08-01T02:28:02.965Z,2.10
2022-08-01T02:30:36.199Z,1.90
2022-08-01T02:33:15.417Z,2.13
2022-08-01T02:36:29.730Z,1.73
2022-08-01T02:38:41.132Z,1.80
2022-08-01T02:41:13.815Z,1.70
2022-08-01T02:43:53.210Z,1.93
2022-08-01T02:46:29.741Z,1.97
2022-08-01T02:49:01.794Z,1.90
2022-08-01T02:51:31.883Z,1.87
2022-08-01T02:54:03.529Z,1.93
2022-08-01T02:56:36.584Z,1.83
2022-08-01T02:59:16.097Z,2.00
2022-08-01T03:01:50.027Z,1.97
2022-08-01T03:04:20.171Z,1.63
2022-08-01T03:06:49.923Z,1.80
2022-08-01T03:09:18.818Z,1.67
2022-08-01T03:11:49.938Z,2.00
2022-08-01T03:14:19.227Z,1.73
2022-08-01T03:16:49.936Z,2.00
2022-08-01T03:19:19.729Z,1.93
2022-08-01T03:21:49.195Z,1.87
2022-08-01T03:24:18.853Z,1.70
2022-08-01T03:26:48.210Z,1.77
2022-08-01T03:29:20.762Z,1.97
2022-08-01T03:31:51.406Z,2.40
2022-08-01T03:34:22.215Z,1.73
2022-08-01T03:36:57.658Z,1.83
2022-08-01T03:39:32.485Z,1.63
2022-08-01T03:42:09.828Z,2.10
2022-08-01T03:44:40.119Z,1.77
2022-08-01T03:47:11.665Z,1.90
2022-08-01T03:49:45.182Z,1.93
2022-08-01T03:52:14.539Z,2.00
2022-08-01T03:54:48.353Z,1.70
2022-08-01T03:57:34.830Z,1.90
2022-08-01T04:00:09.944Z,1.70
2022-08-01T04:02:43.636Z,2.10
2022-08-01T04:05:12.582Z,2.20
2022-08-01T04:07:43.860Z,2.10
2022-08-01T04:10:11.964Z,2.13
2022-08-01T04:12:40.082Z,2.03
2022-08-01T04:15:10.232Z,2.33
2022-08-01T04:17:38.270Z,2.10
2022-08-01T04:20:09.017Z,1.77
2022-08-01T04:22:37.623Z,2.27
2022-08-01T04:25:14.347Z,1.90
2022-08-01T04:27:50.368Z,2.07
2022-08-01T04:30:24.566Z,2.23
2022-08-01T04:32:55.528Z,2.17
2022-08-01T04:36:02.964Z,2.33
2022-08-01T04:38:19.481Z,2.10
2022-08-01T04:40:48.074Z,1.90
2022-08-01T04:43:16.793Z,2.17
2022-08-01T04:45:45.636Z,2.23
2022-08-01T04:48:15.293Z,2.13
2022-08-01T04:50:45.334Z,2.23
2022-08-01T04:53:17.674Z,1.80
2022-08-01T04:55:46.862Z,1.60
2022-08-01T04:58:18.223Z,1.80
2022-08-01T05:00:47.415Z,1.77
2022-08-01T05:03:15.761Z,2.00
2022-08-01T05:05:45.155Z,1.83
2022-08-01T05:08:13.281Z,2.43
2022-08-01T05:10:41.286Z,1.67
2022-08-01T05:13:09.690Z,2.23
2022-08-01T05:15:38.543Z,1.90
2022-08-01T05:18:08.710Z,2.40
2022-08-01T05:20:37.921Z,2.00
2022-08-01T05:23:08.053Z,1.70
2022-08-01T05:25:56.892Z,1.97
2022-08-01T05:28:26.426Z,2.10
2022-08-01T05:30:55.750Z,2.23
2022-08-01T05:33:23.968Z,1.90
2022-08-01T05:35:52.056Z,1.70
2022-08-01T05:38:21.505Z,2.70
2022-08-01T05:40:49.745Z,1.67
2022-08-01T05:43:17.836Z,2.30
2022-08-01T05:45:46.962Z,2.00
2022-08-01T05:48:15.191Z,1.83
2022-08-01T05:50:43.339Z,2.40
2022-08-01T05:53:11.518Z,2.40
2022-08-01T05:55:40.897Z,2.10
2022-08-01T05:58:12.414Z,2.23
2022-08-01T06:00:43.322Z,2.07
2022-08-01T06:03:12.321Z,2.10
2022-08-01T06:05:40.530Z,1.63
2022-08-01T06:08:08.574Z,2.23
2022-08-01T06:10:36.830Z,2.00
2022-08-01T06:13:06.212Z,2.07
2022-08-01T06:15:34.673Z,1.83
2022-08-01T06:18:02.917Z,1.80
2022-08-01T06:20:31.174Z,2.03
2022-08-01T06:22:59.733Z,1.90
2022-08-01T06:25:28.058Z,1.67
2022-08-01T06:27:56.240Z,1.80
2022-08-01T06:30:26.170Z,1.70
2022-08-01T06:32:56.770Z,1.50
2022-08-01T06:35:24.763Z,1.43
2022-08-01T06:37:52.969Z,1.80
2022-08-01T06:40:21.095Z,1.90
2022-08-01T06:42:49.303Z,1.40
2022-08-01T06:45:18.127Z,1.30
2022-08-01T06:47:49.457Z,1.00
2022-08-01T06:50:19.467Z,1.10
2022-08-01T06:52:47.762Z,1.00
2022-08-01T06:55:15.845Z,1.10
2022-08-01T06:57:51.398Z,1.10
2022-08-01T07:00:23.381Z,1.30
2022-08-01T07:02:54.236Z,1.40
2022-08-01T07:05:23.327Z,1.10
2022-08-01T07:07:52.347Z,1.40
2022-08-01T07:10:20.880Z,1.60
2022-08-01T07:12:48.898Z,1.40
2022-08-01T07:15:17.459Z,1.40
2022-08-01T07:17:45.639Z,1.87
2022-08-01T07:20:16.510Z,2.97
2022-08-01T07:22:48.181Z,2.17
2022-08-01T07:25:16.601Z,1.50
2022-08-01T07:27:45.567Z,1.60
2022-08-01T07:30:14.718Z,1.73
2022-08-01T07:32:42.912Z,1.40
2022-08-01T07:35:11.832Z,1.60
2022-08-01T07:37:48.430Z,1.60
2022-08-01T07:40:19.940Z,1.87
2022-08-01T07:42:48.403Z,1.43
2022-08-01T07:45:17.278Z,2.13
2022-08-01T07:47:46.495Z,1.60
2022-08-01T07:50:14.971Z,1.47
2022-08-01T07:52:44.629Z,1.20
2022-08-01T07:55:16.588Z,1.30
2022-08-01T07:57:45.105Z,1.30
2022-08-01T08:00:14.501Z,1.30
2022-08-01T08:02:42.661Z,1.53
2022-08-01T08:05:10.996Z,1.30
2022-08-01T08:07:40.070Z,1.60
2022-08-01T08:10:11.272Z,1.43
2022-08-01T08:12:39.561Z,2.30
2022-08-01T08:15:10.154Z,2.20
2022-08-01T08:17:38.285Z,1.67
2022-08-01T08:20:09.326Z,1.70
2022-08-01T08:22:38.933Z,1.70
2022-08-01T08:25:10.377Z,1.50
2022-08-01T08:27:40.478Z,1.63
2022-08-01T08:30:09.769Z,1.50
2022-08-01T08:32:38.176Z,1.53
2022-08-01T08:35:07.619Z,1.70
2022-08-01T08:37:37.961Z,1.90
2022-08-01T08:40:13.485Z,1.77
2022-08-01T08:42:42.809Z,2.10
2022-08-01T08:45:13.486Z,1.90
2022-08-01T08:47:43.603Z,1.97
2022-08-01T08:50:11.928Z,1.83
2022-08-01T08:52:42.057Z,2.20
2022-08-01T08:55:19.832Z,2.23
2022-08-01T08:57:49.494Z,2.40
2022-08-01T09:00:18.192Z,4.37
2022-08-01T09:02:49.993Z,2.80
2022-08-01T09:05:26.379Z,2.60
2022-08-01T09:08:09.585Z,2.77
2022-08-01T09:10:39.110Z,3.00
2022-08-01T09:13:11.944Z,3.07
2022-08-01T09:15:43.843Z,2.90
2022-08-01T09:18:29.810Z,2.50
2022-08-01T09:21:15.192Z,3.00
2022-08-01T09:23:54.386Z,2.87
2022-08-01T09:26:32.866Z,2.83
2022-08-01T09:29:06.378Z,2.93
2022-08-01T09:31:47.736Z,2.73
2022-08-01T09:34:16.853Z,2.90
2022-08-01T09:36:54.311Z,2.53
2022-08-01T09:39:25.572Z,2.60
2022-08-01T09:41:56.575Z,2.70
2022-08-01T09:44:42.593Z,2.50
2022-08-01T09:47:12.449Z,2.57
2022-08-01T09:49:50.198Z,2.50
2022-08-01T09:52:25.986Z,2.93
2022-08-01T09:54:58.891Z,2.77
2022-08-01T09:57:30.531Z,2.73
2022-08-01T10:00:02.121Z,3.40
2022-08-01T10:02:41.947Z,2.83
2022-08-01T10:05:20.961Z,2.67
2022-08-01T10:08:00.800Z,3.47
2022-08-01T10:10:31.425Z,3.33
2022-08-01T10:13:05.738Z,3.93
2022-08-01T10:15:38.203Z,2.90
2022-08-01T10:18:16.764Z,2.77
2022-08-01T10:20:56.789Z,2.53
2022-08-01T10:23:40.042Z,2.30
2022-08-01T10:26:12.334Z,2.40
2022-08-01T10:28:42.741Z,2.30
2022-08-01T10:31:12.759Z,2.20
2022-08-01T10:33:52.197Z,2.00
2022-08-01T10:36:25.303Z,1.77
2022-08-01T10:38:55.674Z,2.80
2022-08-01T10:41:25.535Z,2.77
2022-08-01T10:43:57.777Z,2.43
2022-08-01T10:46:26.840Z,2.17
2022-08-01T10:49:02.865Z,1.80
2022-08-01T10:51:52.758Z,1.80
2022-08-01T10:54:19.365Z,1.63
2022-08-01T10:56:50.903Z,1.70
2022-08-01T10:59:49.900Z,1.70
2022-08-01T11:02:21.307Z,1.90
2022-08-01T11:04:58.158Z,2.60
2022-08-01T11:07:43.324Z,2.57
2022-08-01T11:10:24.478Z,1.87
2022-08-01T11:12:53.466Z,1.60
2022-08-01T11:15:31.658Z,2.33
2022-08-01T11:18:03.061Z,2.40
2022-08-01T11:20:39.534Z,1.80
2022-08-01T11:23:25.080Z,1.70
2022-08-01T11:26:17.809Z,1.70
2022-08-01T11:29:23.458Z,1.50
2022-08-01T11:31:53.728Z,1.60
2022-08-01T11:34:41.976Z,1.67
2022-08-01T11:37:26.171Z,1.67
2022-08-01T11:40:17.647Z,2.00
2022-08-01T11:42:45.945Z,1.77
2022-08-01T11:45:18.309Z,1.80
2022-08-01T11:47:50.764Z,1.97
2022-08-01T11:50:36.073Z,1.90
2022-08-01T11:53:07.224Z,1.60
2022-08-01T11:55:36.661Z,1.70
2022-08-01T11:58:07.599Z,1.50
2022-08-01T12:00:53.773Z,1.80
2022-08-01T12:03:33.564Z,1.40
2022-08-01T12:06:02.824Z,2.90
2022-08-01T12:08:34.245Z,2.83
2022-08-01T12:11:03.410Z,2.00
2022-08-01T12:13:44.074Z,1.87
2022-08-01T12:16:13.330Z,1.87
2022-08-01T12:18:43.542Z,1.60
2022-08-01T12:21:11.688Z,2.33
2022-08-01T12:23:39.762Z,2.13
2022-08-01T12:26:07.829Z,1.57
2022-08-01T12:28:41.766Z,1.63
2022-08-01T12:31:09.856Z,1.87
2022-08-01T12:33:42.276Z,1.60
2022-08-01T12:36:14.708Z,1.63
2022-08-01T12:38:43.091Z,1.90
2022-08-01T12:41:13.568Z,1.63
2022-08-01T12:43:42.618Z,1.70
2022-08-01T12:46:16.987Z,1.40
2022-08-01T12:48:46.703Z,1.93
2022-08-01T12:51:14.922Z,1.57
2022-08-01T12:53:43.047Z,1.47
2022-08-01T12:56:12.397Z,1.70
2022-08-01T12:58:41.229Z,2.60
2022-08-01T13:01:12.320Z,2.20
2022-08-01T13:03:41.006Z,1.60
2022-08-01T13:06:16.929Z,3.30
2022-08-01T13:08:47.136Z,1.90
2022-08-01T13:11:18.989Z,1.60
2022-08-01T13:13:49.241Z,1.77
2022-08-01T13:16:30.672Z,1.70
2022-08-01T13:19:07.725Z,1.90
2022-08-01T13:21:53.073Z,1.80
2022-08-01T13:24:28.850Z,1.90
2022-08-01T13:27:01.075Z,2.00
2022-08-01T13:29:38.760Z,1.83
2022-08-01T13:32:28.561Z,2.20
2022-08-01T13:35:04.735Z,1.70
2022-08-01T13:37:34.288Z,1.73
2022-08-01T13:40:02.384Z,1.50
2022-08-01T13:42:31.326Z,1.70
2022-08-01T13:44:59.419Z,2.10
2022-08-01T13:47:31.417Z,1.77
2022-08-01T13:50:03.768Z,2.00
2022-08-01T13:52:34.089Z,1.67
2022-08-01T13:55:03.285Z,1.60
2022-08-01T13:57:39.005Z,1.90
2022-08-01T14:00:10.062Z,1.70
2022-08-01T14:02:41.375Z,1.60
2022-08-01T14:05:10.197Z,1.67
2022-08-01T14:07:39.652Z,1.43
2022-08-01T14:10:19.593Z,1.80
2022-08-01T14:12:49.491Z,1.90
2022-08-01T14:15:36.833Z,1.60
2022-08-01T14:18:09.588Z,1.60
2022-08-01T14:20:40.666Z,1.80
2022-08-01T14:23:10.751Z,1.40
2022-08-01T14:26:02.808Z,1.40
2022-08-01T14:28:29.569Z,1.67
2022-08-01T14:30:58.382Z,1.50
2022-08-01T14:33:27.106Z,1.40
2022-08-01T14:36:05.241Z,1.60
2022-08-01T14:38:46.576Z,1.70
2022-08-01T14:41:15.314Z,1.70
2022-08-01T14:43:43.549Z,1.73
2022-08-01T14:46:12.285Z,1.43
2022-08-01T14:48:40.588Z,1.70
2022-08-01T14:51:08.703Z,1.70
2022-08-01T14:53:38.540Z,1.67
2022-08-01T14:56:09.071Z,1.60
2022-08-01T14:58:37.197Z,1.77
2022-08-01T15:01:06.711Z,1.70
2022-08-01T15:03:35.161Z,1.90
2022-08-01T15:06:03.310Z,2.03
2022-08-01T15:08:33.238Z,1.83
2022-08-01T15:11:04.801Z,1.70
2022-08-01T15:13:36.251Z,1.50
2022-08-01T15:16:06.532Z,1.50
2022-08-01T15:18:35.536Z,1.60
2022-08-01T15:21:04.127Z,1.40
2022-08-01T15:23:32.164Z,1.37
2022-08-01T15:26:00.251Z,1.43
2022-08-01T15:28:28.364Z,1.07
2022-08-01T15:30:57.835Z,1.13
2022-08-01T15:33:25.865Z,1.37
2022-08-01T15:35:54.141Z,1.40
2022-08-01T15:38:22.651Z,1.20
2022-08-01T15:40:50.874Z,1.37
2022-08-01T15:43:19.125Z,1.10
2022-08-01T15:45:48.415Z,1.30
2022-08-01T15:48:19.027Z,1.13
2022-08-01T15:50:47.498Z,1.50
2022-08-01T15:53:15.696Z,1.50
2022-08-01T15:55:52.067Z,1.30
2022-08-01T15:58:20.817Z,1.60
2022-08-01T16:00:48.926Z,1.27
2022-08-01T16:03:18.589Z,1.17
2022-08-01T16:05:46.858Z,1.40
2022-08-01T16:08:15.530Z,1.53
2022-08-01T16:10:44.229Z,1.87
2022-08-01T16:13:12.536Z,1.20
2022-08-01T16:15:41.311Z,1.27
2022-08-01T16:18:12.927Z,1.63
2022-08-01T16:20:45.893Z,1.77
2022-08-01T16:23:15.216Z,1.50
2022-08-01T16:25:44.660Z,1.13
2022-08-01T16:28:13.968Z,1.10
2022-08-01T16:30:48.595Z,1.33
2022-08-01T16:33:53.077Z,1.30
2022-08-01T16:36:18.304Z,0.93
2022-08-01T16:38:47.707Z,1.00
2022-08-01T16:41:19.699Z,1.20
2022-08-01T16:43:53.907Z,1.20
2022-08-01T16:46:24.905Z,1.50
2022-08-01T16:48:53.734Z,1.33
2022-08-01T16:51:23.320Z,1.50
2022-08-01T16:53:51.684Z,1.23
2022-08-01T16:56:20.153Z,1.17
2022-08-01T16:58:48.435Z,1.37
2022-08-01T17:01:58.717Z,1.00
2022-08-01T17:04:06.588Z,1.10
2022-08-01T17:06:36.296Z,1.20
2022-08-01T17:09:06.882Z,1.23
2022-08-01T17:11:35.012Z,1.00
2022-08-01T17:14:03.347Z,1.30
2022-08-01T17:16:31.958Z,0.80
2022-08-01T17:19:00.113Z,1.00
2022-08-01T17:21:28.625Z,1.10
2022-08-01T17:23:58.145Z,0.90
2022-08-01T17:26:26.528Z,1.10
2022-08-01T17:28:54.643Z,1.20
2022-08-01T17:31:22.926Z,1.13
2022-08-01T17:33:54.766Z,1.40
2022-08-01T17:36:23.133Z,1.23
2022-08-01T17:38:51.192Z,1.10
2022-08-01T17:41:20.892Z,1.00
2022-08-01T17:43:48.942Z,1.13
2022-08-01T17:46:17.565Z,1.30
2022-08-01T17:48:46.538Z,1.30
2022-08-01T17:51:18.118Z,1.10
2022-08-01T17:53:56.905Z,0.83
2022-08-01T17:56:28.273Z,0.90
2022-08-01T17:58:56.933Z,1.50
2022-08-01T18:01:26.411Z,1.13
2022-08-01T18:03:57.305Z,1.23
2022-08-01T18:06:26.995Z,1.17
2022-08-01T18:08:56.739Z,1.30
2022-08-01T18:11:29.180Z,1.20
2022-08-01T18:14:05.757Z,1.53
2022-08-01T18:16:33.791Z,1.20
2022-08-01T18:19:01.819Z,0.90
2022-08-01T18:21:32.098Z,0.90
2022-08-01T18:24:01.468Z,1.20
2022-08-01T18:26:31.019Z,1.00
2022-08-01T18:28:59.192Z,0.90
2022-08-01T18:31:27.270Z,1.03
2022-08-01T18:33:55.380Z,1.00
2022-08-01T18:36:31.637Z,1.10
2022-08-01T18:39:10.511Z,1.17
2022-08-01T18:41:40.658Z,0.97
2022-08-01T18:44:09.443Z,0.93
2022-08-01T18:46:38.693Z,1.20
2022-08-01T18:49:08.706Z,1.23
2022-08-01T18:51:42.947Z,0.97
2022-08-01T18:54:12.552Z,1.10
2022-08-01T18:56:43.133Z,0.90
2022-08-01T18:59:11.732Z,0.83
2022-08-01T19:01:40.142Z,1.10
2022-08-01T19:04:09.860Z,1.27
2022-08-01T19:06:38.873Z,1.00
2022-08-01T19:09:08.626Z,1.20
2022-08-01T19:11:37.739Z,1.40
2022-08-01T19:14:07.459Z,0.90
2022-08-01T19:16:35.649Z,1.10
2022-08-01T19:19:06.894Z,0.80
2022-08-01T19:21:41.526Z,1.10
2022-08-01T19:24:23.310Z,1.10
2022-08-01T19:26:54.346Z,0.80
2022-08-01T19:29:35.308Z,0.80
2022-08-01T19:32:06.704Z,1.13
2022-08-01T19:34:41.927Z,0.90
2022-08-01T19:37:10.589Z,1.00
2022-08-01T19:39:39.448Z,0.73
2022-08-01T19:42:09.630Z,0.90
2022-08-01T19:44:39.171Z,1.00
2022-08-01T19:47:07.800Z,0.77
2022-08-01T19:49:36.206Z,1.10
2022-08-01T19:52:05.899Z,0.80
2022-08-01T19:54:37.045Z,0.90
2022-08-01T19:57:08.328Z,1.13
2022-08-01T19:59:39.349Z,0.93
2022-08-01T20:02:08.433Z,1.00
2022-08-01T20:04:37.352Z,0.90
2022-08-01T20:07:05.753Z,0.90
2022-08-01T20:09:34.441Z,1.23
2022-08-01T20:12:02.657Z,1.00
2022-08-01T20:14:30.793Z,1.07
2022-08-01T20:17:00.343Z,1.00
2022-08-01T20:19:30.462Z,0.80
2022-08-01T20:22:03.900Z,1.10
2022-08-01T20:24:41.315Z,1.00
2022-08-01T20:27:11.643Z,1.00
2022-08-01T20:29:40.778Z,1.10
2022-08-01T20:32:10.543Z,1.00
2022-08-01T20:34:40.280Z,1.10
2022-08-01T20:37:10.304Z,1.20
2022-08-01T20:39:44.269Z,1.03
2022-08-01T20:42:13.827Z,1.00
2022-08-01T20:44:42.657Z,1.33
2022-08-01T20:47:12.990Z,1.20
2022-08-01T20:49:44.218Z,1.20
2022-08-01T20:52:12.995Z,1.27
2022-08-01T20:54:42.314Z,1.23
2022-08-01T20:57:20.276Z,0.73
2022-08-01T20:59:56.606Z,1.00
2022-08-01T21:02:42.522Z,1.27
2022-08-01T21:05:12.945Z,1.30
2022-08-01T21:07:49.431Z,1.17
2022-08-01T21:10:20.560Z,1.10
2022-08-01T21:12:55.635Z,1.50
2022-08-01T21:15:31.159Z,1.30
2022-08-01T21:18:05.038Z,1.80
2022-08-01T21:20:40.076Z,1.40
2022-08-01T21:23:22.553Z,1.80
2022-08-01T21:25:52.119Z,1.40
2022-08-01T21:28:20.984Z,1.50
2022-08-01T21:30:55.750Z,1.40
2022-08-01T21:33:27.483Z,1.70
2022-08-01T21:36:02.724Z,1.67
2022-08-01T21:38:36.766Z,1.53
2022-08-01T21:41:07.812Z,1.50
2022-08-01T21:43:37.575Z,1.40
2022-08-01T21:46:06.790Z,1.43
2022-08-01T21:48:38.644Z,1.53
2022-08-01T21:51:18.346Z,1.50
2022-08-01T21:54:10.237Z,1.30
2022-08-01T21:56:49.952Z,1.60
2022-08-01T21:59:29.719Z,1.80
2022-08-01T22:02:03.126Z,1.60
2022-08-01T22:04:42.245Z,1.53
2022-08-01T22:07:14.602Z,1.53
2022-08-01T22:09:47.164Z,1.67
2022-08-01T22:12:18.228Z,1.80
2022-08-01T22:14:50.919Z,1.87
2022-08-01T22:17:23.137Z,1.40
2022-08-01T22:19:55.065Z,1.90
2022-08-01T22:22:44.279Z,2.00
2022-08-01T22:25:13.943Z,1.63
2022-08-01T22:28:02.965Z,1.60
2022-08-01T22:30:31.290Z,1.30
2022-08-01T22:33:15.831Z,1.50
2022-08-01T22:35:47.555Z,1.30
2022-08-01T22:38:17.817Z,1.47
2022-08-01T22:40:51.315Z,1.50
2022-08-01T22:43:31.679Z,1.60
2022-08-01T22:46:22.316Z,1.63
2022-08-01T22:48:57.471Z,1.40
2022-08-01T22:51:55.694Z,1.50
2022-08-01T22:54:35.396Z,1.90
2022-08-01T22:57:07.545Z,1.60
2022-08-01T22:59:50.469Z,1.93
2022-08-01T23:02:20.157Z,1.50
2022-08-01T23:04:50.854Z,1.80
2022-08-01T23:07:27.256Z,1.60
2022-08-01T23:09:57.015Z,1.90
2022-08-01T23:12:28.179Z,1.83
2022-08-01T23:14:58.510Z,1.80
2022-08-01T23:17:29.100Z,1.60
2022-08-01T23:20:01.363Z,2.00
2022-08-01T23:22:32.787Z,1.33
2022-08-01T23:25:04.916Z,1.80
2022-08-01T23:27:57.835Z,1.60
2022-08-01T23:30:27.384Z,1.70
2022-08-01T23:32:56.013Z,1.90
2022-08-01T23:35:24.677Z,1.63
2022-08-01T23:38:02.453Z,1.63
2022-08-01T23:40:32.300Z,1.60
2022-08-01T23:43:01.614Z,1.93
2022-08-01T23:46:01.694Z,1.63
2022-08-01T23:48:18.553Z,2.00
2022-08-01T23:50:46.621Z,1.90
2022-08-01T23:53:16.112Z,2.27
2022-08-01T23:55:44.656Z,1.93
2022-08-01T23:58:12.899Z,2.00
